createdAt,value
2018-07-26T00:04:13.434Z,79.60
2018-07-26T00:06:43.704Z,79.40
2018-07-26T00:09:14.028Z,79.90
2018-07-26T00:11:44.307Z,80.60
2018-07-26T00:14:14.632Z,80.10
2018-07-26T00:16:44.972Z,80.40
2018-07-26T00:19:15.266Z,81.30
2018-07-26T00:21:45.558Z,80.40
2018-07-26T00:24:15.805Z,81.10
2018-07-26T00:26:46.094Z,81.10
2018-07-26T00:29:16.434Z,81.50
2018-07-26T00:31:46.706Z,81.40
2018-07-26T00:34:16.984Z,81.90
2018-07-26T00:36:47.268Z,81.90
2018-07-26T00:39:17.512Z,81.90
2018-07-26T00:41:47.849Z,82.60
2018-07-26T00:44:18.126Z,82.00
2018-07-26T00:46:48.431Z,81.80
2018-07-26T00:49:18.816Z,82.60
2018-07-26T00:51:49.085Z,82.80
2018-07-26T00:54:19.396Z,81.90
2018-07-26T00:56:49.676Z,82.40
2018-07-26T00:59:19.986Z,81.70
2018-07-26T01:01:50.281Z,81.90
2018-07-26T01:04:20.548Z,82.10
2018-07-26T01:06:50.900Z,82.80
2018-07-26T01:09:21.159Z,83.10
2018-07-26T01:11:51.757Z,83.00
2018-07-26T01:14:22.414Z,83.10
2018-07-26T01:16:52.720Z,83.40
2018-07-26T01:19:22.992Z,83.50
2018-07-26T01:21:53.308Z,83.50
2018-07-26T01:24:23.580Z,83.90
2018-07-26T01:26:53.840Z,84.00
2018-07-26T01:29:24.141Z,84.20
2018-07-26T01:31:55.079Z,83.70
2018-07-26T01:34:25.433Z,83.90
2018-07-26T01:36:55.725Z,83.90
2018-07-26T01:39:26.042Z,83.80
2018-07-26T01:41:56.360Z,83.40
2018-07-26T01:44:26.796Z,83.80
2018-07-26T01:46:57.028Z,84.20
2018-07-26T01:51:57.411Z,85.20
2018-07-26T01:54:27.655Z,85.50
2018-07-26T01:56:57.960Z,85.90
2018-07-26T01:59:28.229Z,86.30
2018-07-26T02:01:58.542Z,86.10
2018-07-26T02:04:28.857Z,86.40
2018-07-26T02:06:59.143Z,86.40
2018-07-26T02:09:29.406Z,86.20
2018-07-26T02:11:59.871Z,86.60
2018-07-26T02:14:34.186Z,86.10
2018-07-26T02:17:05.055Z,86.30
2018-07-26T02:19:35.344Z,86.70
2018-07-26T02:22:05.836Z,86.40
2018-07-26T02:24:36.132Z,86.60
2018-07-26T02:27:07.095Z,86.70
2018-07-26T02:29:37.467Z,86.80
2018-07-26T02:32:07.788Z,86.80
2018-07-26T02:34:38.135Z,87.20
2018-07-26T02:37:08.481Z,87.60
2018-07-26T02:39:38.724Z,87.10
2018-07-26T02:42:09.090Z,86.90
2018-07-26T02:44:39.394Z,86.60
2018-07-26T02:47:09.758Z,86.70
2018-07-26T02:49:40.031Z,87.20
2018-07-26T02:52:10.424Z,87.10
2018-07-26T02:54:40.689Z,87.30
2018-07-26T02:57:11.009Z,87.50
2018-07-26T02:59:41.393Z,87.60
2018-07-26T03:02:11.738Z,87.60
2018-07-26T03:04:42.047Z,87.70
2018-07-26T03:07:12.411Z,88.20
2018-07-26T03:09:42.602Z,88.60
2018-07-26T03:12:12.858Z,88.20
2018-07-26T03:14:44.704Z,87.40
2018-07-26T03:17:15.855Z,87.00
2018-07-26T03:19:46.132Z,86.60
2018-07-26T03:22:16.503Z,87.30
2018-07-26T03:24:46.809Z,87.50
2018-07-26T03:27:17.189Z,87.40
2018-07-26T03:29:47.503Z,87.60
2018-07-26T03:32:17.800Z,87.70
2018-07-26T03:34:48.126Z,88.30
2018-07-26T03:37:18.404Z,87.80
2018-07-26T03:39:48.682Z,88.00
2018-07-26T03:42:18.981Z,88.30
2018-07-26T03:44:49.290Z,88.30
2018-07-26T03:47:19.572Z,88.80
2018-07-26T03:49:49.844Z,88.50
2018-07-26T03:52:20.161Z,88.40
2018-07-26T03:54:50.395Z,88.70
2018-07-26T03:57:20.704Z,88.90
2018-07-26T03:59:51.057Z,88.70
2018-07-26T04:02:21.342Z,88.50
2018-07-26T04:04:51.731Z,88.40
2018-07-26T04:07:21.982Z,88.70
2018-07-26T04:09:52.267Z,88.80
2018-07-26T04:12:22.543Z,88.50
2018-07-26T04:14:52.878Z,88.60
2018-07-26T04:17:23.129Z,88.70
2018-07-26T04:19:53.401Z,88.90
2018-07-26T04:22:23.657Z,88.60
2018-07-26T04:24:53.985Z,88.30
2018-07-26T04:27:24.272Z,87.70
2018-07-26T04:29:54.543Z,87.70
2018-07-26T04:32:26.691Z,87.50
2018-07-26T04:34:57.379Z,87.30
2018-07-26T04:37:27.821Z,87.40
2018-07-26T04:39:58.123Z,86.20
2018-07-26T04:42:28.579Z,86.00
2018-07-26T04:44:58.925Z,85.50
2018-07-26T04:47:29.198Z,85.50
2018-07-26T04:49:59.531Z,85.70
2018-07-26T04:52:29.881Z,85.70
2018-07-26T04:55:00.194Z,85.70
2018-07-26T04:57:30.512Z,85.00
2018-07-26T05:00:00.782Z,84.80
2018-07-26T05:02:31.150Z,85.20
2018-07-26T05:05:01.476Z,85.30
2018-07-26T05:07:31.772Z,85.30
2018-07-26T05:10:02.076Z,85.10
2018-07-26T05:12:32.376Z,85.10
2018-07-26T05:15:03.007Z,85.30
2018-07-26T05:17:33.641Z,85.90
2018-07-26T05:20:03.969Z,85.30
2018-07-26T05:22:34.269Z,84.70
2018-07-26T05:25:04.629Z,84.40
2018-07-26T05:27:34.920Z,84.50
2018-07-26T05:30:05.755Z,84.70
2018-07-26T05:32:36.090Z,84.70
2018-07-26T05:35:06.465Z,83.80
2018-07-26T05:37:36.913Z,84.60
2018-07-26T05:40:07.358Z,84.20
2018-07-26T05:42:37.680Z,84.10
2018-07-26T05:45:09.065Z,83.30
2018-07-26T05:47:39.407Z,83.30
2018-07-26T05:50:10.064Z,82.60
2018-07-26T05:52:40.390Z,82.50
2018-07-26T05:55:11.526Z,81.90
2018-07-26T05:57:41.812Z,81.50
2018-07-26T06:00:13.876Z,81.90
2018-07-26T06:02:45.087Z,82.30
2018-07-26T06:05:15.735Z,81.60
2018-07-26T06:07:46.038Z,80.60
2018-07-26T06:10:16.327Z,79.40
2018-07-26T06:12:46.600Z,79.60
2018-07-26T06:15:16.864Z,78.60
2018-07-26T06:17:50.661Z,77.90
2018-07-26T06:20:21.074Z,76.70
2018-07-26T06:22:51.342Z,75.80
2018-07-26T06:25:21.624Z,74.70
2018-07-26T06:27:52.094Z,73.70
2018-07-26T06:30:22.437Z,74.40
2018-07-26T06:32:55.568Z,74.90
2018-07-26T06:35:25.990Z,74.80
2018-07-26T06:37:56.429Z,75.40
2018-07-26T06:40:26.807Z,75.00
2018-07-26T06:42:57.153Z,74.00
2018-07-26T06:47:57.444Z,74.00
2018-07-26T06:50:27.782Z,73.80
2018-07-26T06:52:58.151Z,73.40
2018-07-26T06:55:28.517Z,73.40
2018-07-26T06:57:59.106Z,73.80
2018-07-26T07:00:29.417Z,73.70
2018-07-26T07:02:59.772Z,73.50
2018-07-26T07:05:30.221Z,73.00
2018-07-26T07:08:00.534Z,72.30
2018-07-26T07:10:30.891Z,71.90
2018-07-26T07:13:01.659Z,71.40
2018-07-26T07:15:34.081Z,71.00
2018-07-26T07:18:04.409Z,70.10
2018-07-26T07:20:34.898Z,70.40
2018-07-26T07:23:05.197Z,70.80
2018-07-26T07:25:35.553Z,70.50
2018-07-26T07:28:06.215Z,70.10
2018-07-26T07:30:36.597Z,69.40
2018-07-26T07:33:06.983Z,69.90
2018-07-26T07:35:37.751Z,69.10
2018-07-26T07:38:08.353Z,68.40
2018-07-26T07:40:39.490Z,68.20
2018-07-26T07:43:10.004Z,67.50
2018-07-26T07:45:40.435Z,66.20
2018-07-26T07:48:11.010Z,66.10
2018-07-26T07:50:41.527Z,63.60
2018-07-26T07:53:11.857Z,64.10
2018-07-26T07:55:42.233Z,64.30
2018-07-26T07:58:12.657Z,64.20
2018-07-26T08:00:42.985Z,62.10
2018-07-26T08:03:13.339Z,61.40
2018-07-26T08:05:43.698Z,61.70
2018-07-26T08:10:44.117Z,58.80
2018-07-26T08:13:14.531Z,59.20
2018-07-26T08:15:44.877Z,59.10
2018-07-26T08:18:15.326Z,59.00
2018-07-26T08:20:45.677Z,58.80
2018-07-26T08:23:16.027Z,59.30
2018-07-26T08:25:46.416Z,59.60
2018-07-26T08:28:16.790Z,59.50
2018-07-26T08:30:47.549Z,58.80
2018-07-26T08:33:17.865Z,57.90
2018-07-26T08:35:48.241Z,58.10
2018-07-26T08:38:23.893Z,57.70
2018-07-26T08:40:54.288Z,57.60
2018-07-26T08:43:24.878Z,57.70
2018-07-26T08:45:55.257Z,56.90
2018-07-26T08:48:25.594Z,57.00
2018-07-26T08:50:55.984Z,56.60
2018-07-26T08:53:26.332Z,56.80
2018-07-26T08:55:56.704Z,56.60
2018-07-26T08:58:27.024Z,56.60
2018-07-26T09:00:57.394Z,57.10
2018-07-26T09:03:27.796Z,57.80
2018-07-26T09:05:58.121Z,58.20
2018-07-26T09:08:28.957Z,58.20
2018-07-26T09:10:59.282Z,57.70
2018-07-26T09:13:29.690Z,57.00
2018-07-26T09:15:59.950Z,56.90
2018-07-26T09:18:30.325Z,56.40
2018-07-26T09:21:00.631Z,56.10
2018-07-26T09:23:30.977Z,56.40
2018-07-26T09:26:01.341Z,56.00
2018-07-26T09:28:31.676Z,55.70
2018-07-26T09:31:02.043Z,54.10
2018-07-26T09:33:32.455Z,54.00
2018-07-26T09:36:02.814Z,53.10
2018-07-26T09:38:33.144Z,52.30
2018-07-26T09:41:03.640Z,53.30
2018-07-26T09:43:33.923Z,52.40
2018-07-26T09:46:04.263Z,51.50
2018-07-26T09:48:34.594Z,50.80
2018-07-26T09:51:04.993Z,50.50
2018-07-26T09:53:35.329Z,50.10
2018-07-26T09:56:05.676Z,50.40
2018-07-26T09:58:35.995Z,51.20
2018-07-26T10:01:11.452Z,51.00
2018-07-26T10:03:41.694Z,49.80
2018-07-26T10:06:12.097Z,50.30
2018-07-26T10:08:42.521Z,50.20
2018-07-26T10:11:12.897Z,50.70
2018-07-26T10:13:43.210Z,49.20
2018-07-26T10:16:13.638Z,47.80
2018-07-26T10:18:44.045Z,48.70
2018-07-26T10:21:14.458Z,46.20
2018-07-26T10:23:44.775Z,46.90
2018-07-26T10:26:15.167Z,47.90
2018-07-26T10:28:45.415Z,47.80
2018-07-26T10:31:16.491Z,47.00
2018-07-26T10:33:46.802Z,47.00
2018-07-26T10:36:17.181Z,45.40
2018-07-26T10:38:47.511Z,45.50
2018-07-26T10:41:17.915Z,45.60
2018-07-26T10:43:48.325Z,44.30
2018-07-26T10:46:18.736Z,43.90
2018-07-26T10:48:49.060Z,42.00
2018-07-26T10:51:19.459Z,42.70
2018-07-26T10:53:49.774Z,42.70
2018-07-26T10:56:20.141Z,41.20
2018-07-26T10:58:50.491Z,39.90
2018-07-26T11:03:50.881Z,38.90
2018-07-26T11:06:21.261Z,38.90
2018-07-26T11:08:51.620Z,39.70
2018-07-26T11:11:21.900Z,40.70
2018-07-26T11:13:52.294Z,41.70
2018-07-26T11:16:22.695Z,42.00
2018-07-26T11:18:53.164Z,41.70
2018-07-26T11:21:23.513Z,42.20
2018-07-26T11:26:23.867Z,39.20
2018-07-26T11:28:54.221Z,37.70
2018-07-26T11:31:24.537Z,37.40
2018-07-26T11:33:54.892Z,38.50
2018-07-26T11:36:25.207Z,38.60
2018-07-26T11:38:55.546Z,37.90
2018-07-26T11:41:25.858Z,36.00
2018-07-26T11:43:56.114Z,34.80
2018-07-26T11:46:26.621Z,35.40
2018-07-26T11:48:56.944Z,35.70
2018-07-26T11:51:27.357Z,36.90
2018-07-26T11:53:57.944Z,37.60
2018-07-26T11:56:28.281Z,38.50
2018-07-26T11:58:58.653Z,38.80
2018-07-26T12:01:29.010Z,39.60
2018-07-26T12:03:59.360Z,40.60
2018-07-26T12:06:29.714Z,40.50
2018-07-26T12:09:00.032Z,40.80
2018-07-26T12:11:30.363Z,41.30
2018-07-26T12:14:00.709Z,40.60
2018-07-26T12:16:31.074Z,39.30
2018-07-26T12:19:01.529Z,37.40
2018-07-26T12:21:31.864Z,34.30
2018-07-26T12:24:02.468Z,33.30
2018-07-26T12:26:32.788Z,32.20
2018-07-26T12:29:03.136Z,31.40
2018-07-26T12:31:33.465Z,30.90
2018-07-26T12:34:03.768Z,30.90
2018-07-26T12:36:34.100Z,29.70
2018-07-26T12:39:06.696Z,29.60
2018-07-26T12:41:37.125Z,29.10
2018-07-26T12:44:07.703Z,30.00
2018-07-26T12:46:38.119Z,29.80
2018-07-26T12:49:08.381Z,29.10
2018-07-26T12:51:38.709Z,29.10
2018-07-26T12:54:09.078Z,28.70
2018-07-26T12:56:39.480Z,28.90
2018-07-26T12:59:09.814Z,28.50
2018-07-26T13:01:40.189Z,27.80
2018-07-26T13:04:10.556Z,28.10
2018-07-26T13:06:40.879Z,27.80
2018-07-26T13:09:11.233Z,27.30
2018-07-26T13:11:41.592Z,26.40
2018-07-26T13:14:11.901Z,26.40
2018-07-26T13:16:42.395Z,26.10
2018-07-26T13:19:12.685Z,26.10
2018-07-26T13:21:42.957Z,26.00
2018-07-26T13:24:13.267Z,26.80
2018-07-26T13:26:43.574Z,27.10
2018-07-26T13:29:13.871Z,26.80
2018-07-26T13:31:44.185Z,26.60
2018-07-26T13:34:14.510Z,26.50
2018-07-26T13:36:44.804Z,26.40
2018-07-26T13:39:15.107Z,27.40
2018-07-26T13:41:45.518Z,27.90
2018-07-26T13:44:15.781Z,29.00
2018-07-26T13:46:46.078Z,29.70
2018-07-26T13:49:16.331Z,29.90
2018-07-26T13:51:46.726Z,28.70
2018-07-26T13:54:17.529Z,28.80
2018-07-26T13:56:47.850Z,29.00
2018-07-26T13:59:18.227Z,28.60
2018-07-26T14:01:48.625Z,28.70
2018-07-26T14:04:18.982Z,29.30
2018-07-26T14:06:49.469Z,30.00
2018-07-26T14:09:19.812Z,31.60
2018-07-26T14:11:50.173Z,32.60
2018-07-26T14:14:20.608Z,33.10
2018-07-26T14:16:51.092Z,33.80
2018-07-26T14:19:21.466Z,34.60
2018-07-26T14:21:51.931Z,34.90
2018-07-26T14:24:26.025Z,35.00
2018-07-26T14:26:56.373Z,34.30
2018-07-26T14:29:27.068Z,37.30
2018-07-26T14:31:57.496Z,38.30
2018-07-26T14:34:27.964Z,37.00
2018-07-26T14:36:58.608Z,37.20
2018-07-26T14:39:29.107Z,36.30
2018-07-26T14:41:59.428Z,36.30
2018-07-26T14:44:29.822Z,36.50
2018-07-26T14:47:00.117Z,36.60
2018-07-26T14:49:30.454Z,37.30
2018-07-26T14:52:00.751Z,37.70
2018-07-26T14:54:31.747Z,36.70
2018-07-26T14:57:02.055Z,35.30
2018-07-26T14:59:32.426Z,35.00
2018-07-26T15:02:02.773Z,34.70
2018-07-26T15:04:33.008Z,35.30
2018-07-26T15:07:03.313Z,36.20
2018-07-26T15:09:33.588Z,39.50
2018-07-26T15:12:03.857Z,41.50
2018-07-26T15:14:34.175Z,41.90
2018-07-26T15:17:04.493Z,41.40
2018-07-26T15:19:34.730Z,42.00
2018-07-26T15:22:05.307Z,42.30
2018-07-26T15:24:36.396Z,41.20
2018-07-26T15:27:06.794Z,41.10
2018-07-26T15:29:37.163Z,40.50
2018-07-26T15:37:07.415Z,34.60
2018-07-26T15:39:37.729Z,33.20
2018-07-26T15:42:08.194Z,31.90
2018-07-26T15:44:38.614Z,30.20
2018-07-26T15:47:08.868Z,30.00
2018-07-26T15:49:39.322Z,27.80
2018-07-26T15:52:09.649Z,27.10
2018-07-26T15:54:40.057Z,27.00
2018-07-26T15:57:10.573Z,26.80
2018-07-26T15:59:40.882Z,26.20
2018-07-26T16:02:11.166Z,26.00
2018-07-26T16:04:41.544Z,25.30
2018-07-26T16:07:11.901Z,25.00
2018-07-26T16:09:42.243Z,24.70
2018-07-26T16:12:12.769Z,24.50
2018-07-26T16:14:43.136Z,23.80
2018-07-26T16:17:13.519Z,24.30
2018-07-26T16:19:43.805Z,23.70
2018-07-26T16:22:14.164Z,22.80
2018-07-26T16:24:44.438Z,22.80
2018-07-26T16:27:14.822Z,23.30
2018-07-26T16:29:45.071Z,23.60
2018-07-26T16:32:15.442Z,23.90
2018-07-26T16:34:45.769Z,23.80
2018-07-26T16:37:16.130Z,23.50
2018-07-26T16:39:46.514Z,23.60
2018-07-26T16:42:16.710Z,23.60
2018-07-26T16:44:47.016Z,23.60
2018-07-26T16:47:17.533Z,23.80
2018-07-26T16:49:47.962Z,24.00
2018-07-26T16:52:18.314Z,24.30
2018-07-26T16:54:48.678Z,25.00
2018-07-26T16:57:19.307Z,25.40
2018-07-26T16:59:50.131Z,25.90
2018-07-26T17:02:20.554Z,26.80
2018-07-26T17:04:50.886Z,27.50
2018-07-26T17:07:21.177Z,27.70
2018-07-26T17:09:51.589Z,28.60
2018-07-26T17:12:21.897Z,29.80
2018-07-26T17:14:52.308Z,32.90
2018-07-26T17:17:22.634Z,36.00
2018-07-26T17:19:52.998Z,36.90
2018-07-26T17:22:23.882Z,38.20
2018-07-26T17:24:54.220Z,39.70
2018-07-26T17:29:54.466Z,43.40
2018-07-26T17:32:24.809Z,43.50
2018-07-26T17:34:55.074Z,44.40
2018-07-26T17:37:25.449Z,44.20
2018-07-26T17:42:25.880Z,44.80
2018-07-26T17:44:56.269Z,45.20
2018-07-26T17:47:26.603Z,46.50
2018-07-26T17:49:56.884Z,46.50
2018-07-26T17:52:27.191Z,46.40
2018-07-26T17:54:57.497Z,47.20
2018-07-26T17:57:27.768Z,47.90
2018-07-26T17:59:58.085Z,47.90
2018-07-26T18:02:28.345Z,48.40
2018-07-26T18:04:58.637Z,48.70
2018-07-26T18:07:28.936Z,49.60
2018-07-26T18:09:59.185Z,49.90
2018-07-26T18:12:29.502Z,50.10
2018-07-26T18:14:59.772Z,50.50
2018-07-26T18:17:30.097Z,50.90
2018-07-26T18:20:00.361Z,51.60
2018-07-26T18:22:30.667Z,52.10
2018-07-26T18:25:00.933Z,52.30
2018-07-26T18:27:31.252Z,52.40
2018-07-26T18:30:01.524Z,52.60
2018-07-26T18:32:31.991Z,53.30
2018-07-26T18:35:02.288Z,53.00
2018-07-26T18:37:32.600Z,53.40
2018-07-26T18:40:02.897Z,53.90
2018-07-26T18:42:33.237Z,54.60
2018-07-26T18:45:03.541Z,55.00
2018-07-26T18:47:33.808Z,55.50
2018-07-26T18:50:04.549Z,56.20
2018-07-26T18:52:34.908Z,55.10
2018-07-26T18:55:06.513Z,55.10
2018-07-26T18:57:36.821Z,55.20
2018-07-26T19:00:10.035Z,55.00
2018-07-26T19:02:40.876Z,55.20
2018-07-26T19:05:11.650Z,55.80
2018-07-26T19:07:42.053Z,55.80
2018-07-26T19:10:12.951Z,55.80
2018-07-26T19:12:43.336Z,55.80
2018-07-26T19:15:13.741Z,55.90
2018-07-26T19:17:44.522Z,56.50
2018-07-26T19:20:14.909Z,56.50
2018-07-26T19:22:45.606Z,56.10
2018-07-26T19:25:15.914Z,56.90
2018-07-26T19:27:46.443Z,57.30
2018-07-26T19:30:16.805Z,57.30
2018-07-26T19:32:47.090Z,57.60
2018-07-26T19:35:17.508Z,58.10
2018-07-26T19:37:47.809Z,58.10
2018-07-26T19:40:18.232Z,58.50
2018-07-26T19:42:48.628Z,59.10
2018-07-26T19:47:49.541Z,59.70
2018-07-26T19:50:19.893Z,60.10
2018-07-26T19:52:50.241Z,60.00
2018-07-26T19:55:20.616Z,60.50
2018-07-26T19:57:50.935Z,60.60
2018-07-26T20:00:21.309Z,60.80
2018-07-26T20:02:51.614Z,61.40
2018-07-26T20:05:22.073Z,62.00
2018-07-26T20:07:52.446Z,62.20
2018-07-26T20:10:22.820Z,62.60
2018-07-26T20:12:53.108Z,62.40
2018-07-26T20:15:23.469Z,62.90
2018-07-26T20:17:53.884Z,63.40
2018-07-26T20:20:24.231Z,63.90
2018-07-26T20:22:54.541Z,64.30
2018-07-26T20:25:24.860Z,64.80
2018-07-26T20:27:55.256Z,64.60
2018-07-26T20:30:25.667Z,65.30
2018-07-26T20:32:55.915Z,65.80
2018-07-26T20:35:26.285Z,65.80
2018-07-26T20:37:56.560Z,65.90
2018-07-26T20:40:27.006Z,66.30
2018-07-26T20:42:57.303Z,66.90
2018-07-26T20:45:27.688Z,67.20
2018-07-26T20:47:58.093Z,67.70
2018-07-26T20:50:29.373Z,67.70
2018-07-26T20:52:59.681Z,67.80
2018-07-26T20:55:29.912Z,67.80
2018-07-26T20:58:00.262Z,67.90
2018-07-26T21:00:30.737Z,68.10
2018-07-26T21:03:01.021Z,68.30
2018-07-26T21:05:31.337Z,68.50
2018-07-26T21:08:01.615Z,68.60
2018-07-26T21:10:31.961Z,68.80
2018-07-26T21:13:02.294Z,69.10
2018-07-26T21:15:32.725Z,69.20
2018-07-26T21:18:05.073Z,69.40
2018-07-26T21:20:37.676Z,69.40
2018-07-26T21:23:08.349Z,70.30
2018-07-26T21:25:39.805Z,71.20
2018-07-26T21:28:10.347Z,71.60
2018-07-26T21:30:41.609Z,72.20
2018-07-26T21:33:12.169Z,72.20
2018-07-26T21:35:43.415Z,71.90
2018-07-26T21:38:14.091Z,72.00
2018-07-26T21:40:44.588Z,72.30
2018-07-26T21:43:15.572Z,72.40
2018-07-26T21:45:46.615Z,73.00
2018-07-26T21:48:16.974Z,72.90
2018-07-26T21:50:48.019Z,73.30
2018-07-26T21:53:18.565Z,73.80
2018-07-26T21:55:49.125Z,74.10
2018-07-26T21:58:20.618Z,74.50
2018-07-26T22:00:56.921Z,74.10
2018-07-26T22:03:28.847Z,74.50
2018-07-26T22:06:00.078Z,74.80
2018-07-26T22:08:30.670Z,74.80
2018-07-26T22:11:01.861Z,75.00
2018-07-26T22:13:32.128Z,75.20
2018-07-26T22:16:02.421Z,75.60
2018-07-26T22:18:32.750Z,75.60
2018-07-26T22:21:03.029Z,75.20
2018-07-26T22:23:33.328Z,75.70
2018-07-26T22:26:03.608Z,75.80
2018-07-26T22:28:35.172Z,76.30
2018-07-26T22:31:05.462Z,76.70
2018-07-26T22:33:35.764Z,76.80
2018-07-26T22:36:06.169Z,77.00
2018-07-26T22:38:36.569Z,77.50
2018-07-26T22:41:06.923Z,77.70
2018-07-26T22:43:37.320Z,77.80
2018-07-26T22:46:07.587Z,77.70
2018-07-26T22:48:37.906Z,77.50
2018-07-26T22:51:08.875Z,78.20
2018-07-26T22:53:39.233Z,78.40
2018-07-26T22:56:10.098Z,78.70
2018-07-26T22:58:41.061Z,79.10
2018-07-26T23:01:11.408Z,79.20
2018-07-26T23:03:41.766Z,79.20
2018-07-26T23:06:12.165Z,79.20
2018-07-26T23:08:42.539Z,79.30
2018-07-26T23:11:17.000Z,79.60
2018-07-26T23:13:47.267Z,79.70
2018-07-26T23:16:17.667Z,79.90
2018-07-26T23:18:48.725Z,80.10
2018-07-26T23:21:19.201Z,80.10
2018-07-26T23:23:49.609Z,80.00
2018-07-26T23:26:20.980Z,80.20
2018-07-26T23:28:51.331Z,80.40
2018-07-26T23:31:21.679Z,80.90
2018-07-26T23:33:52.050Z,81.30
2018-07-26T23:36:22.653Z,81.00
2018-07-26T23:38:53.102Z,81.10
2018-07-26T23:41:23.412Z,81.40
2018-07-26T23:43:53.786Z,81.50
2018-07-26T23:46:24.146Z,81.60
2018-07-26T23:48:54.432Z,82.40
2018-07-26T23:51:24.710Z,81.90
2018-07-26T23:53:55.012Z,81.70
2018-07-26T23:56:25.345Z,81.90
2018-07-26T23:58:55.709Z,81.70
